createdAt,value
2018-07-30T00:06:25.225Z,94310.03
2018-07-30T00:08:53.883Z,94312.66
2018-07-30T00:11:22.544Z,94317.13
2018-07-30T00:13:51.234Z,94318.17
2018-07-30T00:16:19.892Z,94312.09
2018-07-30T00:18:48.663Z,94310.23
2018-07-30T00:21:17.360Z,94312.09
2018-07-30T00:23:46.082Z,94311.78
2018-07-30T00:26:14.717Z,94312.12
2018-07-30T00:28:43.802Z,94315.58
2018-07-30T00:31:12.461Z,94313.16
2018-07-30T00:33:41.131Z,94315.35
2018-07-30T00:36:09.866Z,94313.41
2018-07-30T00:38:38.568Z,94318.45
2018-07-30T00:41:07.213Z,94317.97
2018-07-30T00:43:35.886Z,94324.33
2018-07-30T00:46:05.053Z,94319.94
2018-07-30T00:48:34.742Z,94323.98
2018-07-30T00:51:03.498Z,94326.71
2018-07-30T00:53:32.175Z,94320.13
2018-07-30T00:56:00.851Z,94325.87
2018-07-30T00:58:29.513Z,94321.37
2018-07-30T01:00:58.177Z,94325.03
2018-07-30T01:03:27.166Z,94318.81
2018-07-30T01:05:55.853Z,94323.48
2018-07-30T01:08:24.510Z,94319.97
2018-07-30T01:10:53.161Z,94319.84
2018-07-30T01:13:21.835Z,94321.17
2018-07-30T01:15:50.473Z,94319.28
2018-07-30T01:18:19.119Z,94314.00
2018-07-30T01:20:47.818Z,94312.20
2018-07-30T01:23:16.459Z,94317.34
2018-07-30T01:25:45.234Z,94314.11
2018-07-30T01:28:13.859Z,94313.41
2018-07-30T01:30:42.519Z,94310.34
2018-07-30T01:33:11.205Z,94314.08
2018-07-30T01:35:39.864Z,94312.96
2018-07-30T01:38:08.499Z,94314.03
2018-07-30T01:40:37.126Z,94309.05
2018-07-30T01:43:05.844Z,94309.95
2018-07-30T01:45:34.511Z,94313.58
2018-07-30T01:48:03.134Z,94312.64
2018-07-30T01:50:31.770Z,94312.20
2018-07-30T01:53:00.450Z,94321.98
2018-07-30T01:55:29.158Z,94316.89
2018-07-30T01:57:57.822Z,94319.81
2018-07-30T02:00:26.470Z,94327.66
2018-07-30T02:02:55.173Z,94327.40
2018-07-30T02:05:23.843Z,94325.27
2018-07-30T02:07:52.491Z,94321.17
2018-07-30T02:10:21.143Z,94323.75
2018-07-30T02:12:49.856Z,94322.65
2018-07-30T02:15:18.483Z,94317.17
2018-07-30T02:17:47.187Z,94324.56
2018-07-30T02:20:15.918Z,94328.50
2018-07-30T02:22:44.564Z,94318.18
2018-07-30T02:25:13.251Z,94322.20
2018-07-30T02:27:41.935Z,94323.81
2018-07-30T02:30:10.588Z,94326.95
2018-07-30T02:32:39.238Z,94329.60
2018-07-30T02:35:09.086Z,94330.92
2018-07-30T02:37:37.824Z,94338.81
2018-07-30T02:40:07.196Z,94334.81
2018-07-30T02:42:35.911Z,94333.22
2018-07-30T02:45:05.408Z,94335.10
2018-07-30T02:47:34.063Z,94328.75
2018-07-30T02:50:02.985Z,94331.42
2018-07-30T02:52:31.969Z,94330.25
2018-07-30T02:55:00.664Z,94330.75
2018-07-30T02:57:29.329Z,94334.75
2018-07-30T02:59:58.027Z,94337.67
2018-07-30T03:02:26.715Z,94337.14
2018-07-30T03:04:55.376Z,94341.07
2018-07-30T03:07:24.065Z,94343.93
2018-07-30T03:09:52.782Z,94348.97
2018-07-30T03:12:21.451Z,94344.18
2018-07-30T03:14:50.171Z,94340.47
2018-07-30T03:17:18.807Z,94342.29
2018-07-30T03:19:47.478Z,94346.78
2018-07-30T03:22:16.461Z,94340.69
2018-07-30T03:24:45.195Z,94354.39
2018-07-30T03:27:13.836Z,94349.67
2018-07-30T03:29:42.541Z,94357.82
2018-07-30T03:32:11.226Z,94358.06
2018-07-30T03:34:39.881Z,94350.96
2018-07-30T03:37:08.528Z,94346.47
2018-07-30T03:39:37.168Z,94363.03
2018-07-30T03:42:06.188Z,94355.57
2018-07-30T03:44:34.823Z,94348.86
2018-07-30T03:47:03.461Z,94356.28
2018-07-30T03:49:32.112Z,94361.03
2018-07-30T03:52:00.754Z,94356.57
2018-07-30T03:54:29.405Z,94357.14
2018-07-30T03:56:58.066Z,94352.35
2018-07-30T03:59:26.770Z,94357.86
2018-07-30T04:01:55.492Z,94360.95
2018-07-30T04:04:24.138Z,94368.87
2018-07-30T04:06:52.917Z,94362.74
2018-07-30T04:09:21.659Z,94369.41
2018-07-30T04:11:50.311Z,94363.59
2018-07-30T04:14:19.018Z,94374.23
2018-07-30T04:16:50.529Z,94370.88
2018-07-30T04:19:19.763Z,94375.84
2018-07-30T04:21:48.490Z,94372.91
2018-07-30T04:24:17.222Z,94366.06
2018-07-30T04:26:46.917Z,94373.81
2018-07-30T04:29:16.495Z,94369.85
2018-07-30T04:31:45.299Z,94367.53
2018-07-30T04:34:14.010Z,94375.48
2018-07-30T04:36:42.658Z,94376.45
2018-07-30T04:39:15.401Z,94376.20
2018-07-30T04:41:44.699Z,94375.42
2018-07-30T04:44:13.475Z,94378.63
2018-07-30T04:46:42.155Z,94379.05
2018-07-30T04:49:10.830Z,94386.58
2018-07-30T04:51:39.544Z,94391.65
2018-07-30T04:54:08.244Z,94389.83
2018-07-30T04:56:36.910Z,94393.61
2018-07-30T04:59:05.613Z,94384.33
2018-07-30T05:01:34.369Z,94392.85
2018-07-30T05:04:03.107Z,94392.75
2018-07-30T05:06:31.822Z,94387.37
2018-07-30T05:09:00.500Z,94388.19
2018-07-30T05:11:29.142Z,94381.90
2018-07-30T05:13:57.803Z,94393.51
2018-07-30T05:16:26.435Z,94389.58
2018-07-30T05:18:55.533Z,94387.50
2018-07-30T05:21:24.235Z,94391.65
2018-07-30T05:23:52.887Z,94394.01
2018-07-30T05:26:21.567Z,94386.36
2018-07-30T05:28:50.221Z,94385.05
2018-07-30T05:31:18.912Z,94390.17
2018-07-30T05:33:47.593Z,94385.80
2018-07-30T05:36:16.279Z,94382.94
2018-07-30T05:38:44.955Z,94381.11
2018-07-30T05:41:13.622Z,94389.61
2018-07-30T05:43:42.388Z,94379.95
2018-07-30T05:46:11.102Z,94375.52
2018-07-30T05:48:39.962Z,94374.78
2018-07-30T05:51:08.662Z,94378.52
2018-07-30T05:53:37.312Z,94387.94
2018-07-30T05:56:08.005Z,94380.23
2018-07-30T05:58:37.718Z,94385.05
2018-07-30T06:01:06.487Z,94387.20
2018-07-30T06:03:35.162Z,94396.34
2018-07-30T06:06:03.888Z,94387.28
2018-07-30T06:08:32.563Z,94411.20
2018-07-30T06:11:01.343Z,94401.42
2018-07-30T06:13:30.495Z,94395.00
2018-07-30T06:15:59.231Z,94385.38
2018-07-30T06:18:27.958Z,94396.40
2018-07-30T06:20:56.724Z,94406.31
2018-07-30T06:23:25.446Z,94410.43
2018-07-30T06:25:54.195Z,94404.02
2018-07-30T06:28:22.867Z,94406.52
2018-07-30T06:30:51.576Z,94398.09
2018-07-30T06:33:20.352Z,94401.86
2018-07-30T06:35:49.106Z,94404.15
2018-07-30T06:38:18.832Z,94408.66
2018-07-30T06:40:47.556Z,94410.28
2018-07-30T06:43:16.228Z,94407.02
2018-07-30T06:45:45.243Z,94403.23
2018-07-30T06:48:13.920Z,94398.35
2018-07-30T06:50:42.651Z,94403.38
2018-07-30T06:53:11.519Z,94407.92
2018-07-30T06:55:40.175Z,94405.09
2018-07-30T06:58:08.970Z,94401.86
2018-07-30T07:00:37.684Z,94403.66
2018-07-30T07:03:06.431Z,94403.16
2018-07-30T07:05:35.186Z,94414.01
2018-07-30T07:08:04.554Z,94415.78
2018-07-30T07:10:33.534Z,94406.59
2018-07-30T07:13:02.331Z,94406.87
2018-07-30T07:15:31.015Z,94417.22
2018-07-30T07:17:59.806Z,94412.03
2018-07-30T07:20:28.442Z,94417.70
2018-07-30T07:22:57.115Z,94407.41
2018-07-30T07:25:25.933Z,94404.06
2018-07-30T07:27:54.600Z,94403.78
2018-07-30T07:30:23.366Z,94406.47
2018-07-30T07:32:52.118Z,94405.80
2018-07-30T07:35:20.845Z,94408.51
2018-07-30T07:37:49.620Z,94408.28
2018-07-30T07:40:18.315Z,94409.12
2018-07-30T07:42:47.041Z,94406.06
2018-07-30T07:45:15.791Z,94407.37
2018-07-30T07:47:44.459Z,94410.00
2018-07-30T07:50:13.305Z,94409.70
2018-07-30T07:52:41.944Z,94408.63
2018-07-30T07:55:10.802Z,94409.88
2018-07-30T07:57:39.505Z,94405.51
2018-07-30T08:00:10.112Z,94402.60
2018-07-30T08:02:38.832Z,94405.30
2018-07-30T08:07:36.240Z,94400.89
2018-07-30T08:10:05.541Z,94395.03
2018-07-30T08:12:34.284Z,94398.49
2018-07-30T08:15:03.023Z,94390.18
2018-07-30T08:17:31.755Z,94392.63
2018-07-30T08:20:00.435Z,94383.23
2018-07-30T08:22:29.162Z,94383.86
2018-07-30T08:24:57.856Z,94389.98
2018-07-30T08:27:26.562Z,94389.02
2018-07-30T08:29:55.806Z,94394.62
2018-07-30T08:32:24.460Z,94384.39
2018-07-30T08:34:53.203Z,94383.63
2018-07-30T08:37:21.923Z,94380.01
2018-07-30T08:39:50.586Z,94383.18
2018-07-30T08:42:19.321Z,94380.59
2018-07-30T08:44:47.968Z,94387.27
2018-07-30T08:47:16.659Z,94387.64
2018-07-30T08:49:45.740Z,94389.26
2018-07-30T08:52:14.479Z,94383.73
2018-07-30T08:54:43.144Z,94380.55
2018-07-30T08:57:11.839Z,94381.89
2018-07-30T08:59:40.595Z,94377.59
2018-07-30T09:02:09.357Z,94385.83
2018-07-30T09:04:38.052Z,94377.81
2018-07-30T09:07:06.780Z,94369.80
2018-07-30T09:09:35.499Z,94373.23
2018-07-30T09:12:04.211Z,94374.77
2018-07-30T09:14:32.891Z,94383.87
2018-07-30T09:17:01.659Z,94377.17
2018-07-30T09:19:30.414Z,94375.31
2018-07-30T09:21:59.100Z,94370.22
2018-07-30T09:24:27.738Z,94370.67
2018-07-30T09:26:56.427Z,94373.48
2018-07-30T09:29:25.065Z,94374.07
2018-07-30T09:31:53.751Z,94364.30
2018-07-30T09:34:22.383Z,94361.11
2018-07-30T09:36:51.054Z,94354.73
2018-07-30T09:39:19.775Z,94354.20
2018-07-30T09:41:48.434Z,94350.97
2018-07-30T09:44:17.111Z,94355.20
2018-07-30T09:46:45.818Z,94363.43
2018-07-30T09:49:14.497Z,94362.02
2018-07-30T09:51:43.268Z,94351.31
2018-07-30T09:54:11.947Z,94342.04
2018-07-30T09:56:40.634Z,94337.63
2018-07-30T09:59:09.339Z,94335.69
2018-07-30T10:01:38.277Z,94333.85
2018-07-30T10:04:06.997Z,94339.24
2018-07-30T10:06:35.651Z,94338.06
2018-07-30T10:09:06.732Z,94333.66
2018-07-30T10:11:35.376Z,94323.94
2018-07-30T10:14:04.249Z,94320.94
2018-07-30T10:16:32.951Z,94321.46
2018-07-30T10:19:01.686Z,94317.42
2018-07-30T10:21:30.345Z,94323.06
2018-07-30T10:23:59.237Z,94323.23
2018-07-30T10:26:27.951Z,94324.44
2018-07-30T10:28:56.609Z,94325.88
2018-07-30T10:31:25.347Z,94327.03
2018-07-30T10:33:54.375Z,94331.82
2018-07-30T10:36:23.056Z,94331.58
2018-07-30T10:38:51.744Z,94335.19
2018-07-30T10:41:20.393Z,94337.70
2018-07-30T10:43:49.186Z,94331.21
2018-07-30T10:46:17.821Z,94341.06
2018-07-30T10:48:46.551Z,94347.34
2018-07-30T10:51:15.215Z,94349.56
2018-07-30T10:53:43.946Z,94338.71
2018-07-30T10:56:12.575Z,94334.02
2018-07-30T10:58:41.392Z,94327.12
2018-07-30T11:01:10.068Z,94321.54
2018-07-30T11:03:38.748Z,94326.84
2018-07-30T11:06:07.418Z,94330.70
2018-07-30T11:08:36.127Z,94340.29
2018-07-30T11:11:04.863Z,94353.30
2018-07-30T11:13:33.666Z,94348.23
2018-07-30T11:16:02.337Z,94353.48
2018-07-30T11:18:31.062Z,94352.81
2018-07-30T11:20:59.771Z,94343.47
2018-07-30T11:23:28.434Z,94352.58
2018-07-30T11:25:57.100Z,94348.83
2018-07-30T11:28:25.798Z,94346.92
2018-07-30T11:30:54.520Z,94349.98
2018-07-30T11:33:23.162Z,94348.27
2018-07-30T11:35:51.845Z,94348.16
2018-07-30T11:38:20.517Z,94351.19
2018-07-30T11:40:49.209Z,94342.53
2018-07-30T11:43:17.937Z,94343.34
2018-07-30T11:45:46.714Z,94341.20
2018-07-30T11:48:15.411Z,94347.33
2018-07-30T11:50:44.562Z,94337.45
2018-07-30T11:53:13.247Z,94339.84
2018-07-30T11:55:41.926Z,94347.27
2018-07-30T11:58:10.626Z,94368.27
2018-07-30T12:00:39.409Z,94375.69
2018-07-30T12:03:08.132Z,94379.98
2018-07-30T12:05:36.847Z,94377.64
2018-07-30T12:08:05.577Z,94378.42
2018-07-30T12:10:34.293Z,94370.14
2018-07-30T12:13:02.977Z,94371.47
2018-07-30T12:15:31.659Z,94378.14
2018-07-30T12:18:00.387Z,94365.31
2018-07-30T12:20:29.072Z,94360.05
2018-07-30T12:22:57.833Z,94354.14
2018-07-30T12:25:26.769Z,94361.28
2018-07-30T12:27:56.376Z,94364.77
2018-07-30T12:30:25.174Z,94361.01
2018-07-30T12:32:53.831Z,94352.67
2018-07-30T12:35:22.506Z,94345.69
2018-07-30T12:37:51.176Z,94340.56
2018-07-30T12:40:19.940Z,94344.04
2018-07-30T12:42:48.566Z,94346.05
2018-07-30T12:45:21.317Z,94341.45
2018-07-30T12:47:50.080Z,94342.41
2018-07-30T12:50:18.836Z,94344.47
2018-07-30T12:52:47.593Z,94345.13
2018-07-30T12:55:16.284Z,94351.86
2018-07-30T12:57:44.944Z,94344.03
2018-07-30T13:00:13.622Z,94346.48
2018-07-30T13:02:42.302Z,94338.58
2018-07-30T13:05:11.009Z,94343.69
2018-07-30T13:07:39.659Z,94346.57
2018-07-30T13:10:08.433Z,94345.94
2018-07-30T13:12:37.075Z,94349.57
2018-07-30T13:15:05.831Z,94350.70
2018-07-30T13:17:34.655Z,94344.79
2018-07-30T13:20:03.436Z,94342.97
2018-07-30T13:22:32.061Z,94342.24
2018-07-30T13:25:00.794Z,94334.43
2018-07-30T13:27:29.457Z,94342.31
2018-07-30T13:29:58.143Z,94345.17
2018-07-30T13:32:26.790Z,94338.30
2018-07-30T13:34:55.447Z,94346.75
2018-07-30T13:37:24.291Z,94352.41
2018-07-30T13:39:52.961Z,94342.55
2018-07-30T13:42:21.626Z,94342.02
2018-07-30T13:44:50.370Z,94337.71
2018-07-30T13:47:19.010Z,94336.96
2018-07-30T13:49:47.618Z,94344.78
2018-07-30T13:52:16.270Z,94347.91
2018-07-30T13:54:45.015Z,94343.51
2018-07-30T13:57:13.679Z,94347.38
2018-07-30T13:59:42.357Z,94346.14
2018-07-30T14:02:10.992Z,94336.37
2018-07-30T14:04:39.610Z,94331.09
2018-07-30T14:07:08.349Z,94333.93
2018-07-30T14:09:37.066Z,94332.00
2018-07-30T14:12:05.721Z,94325.19
2018-07-30T14:14:34.419Z,94319.01
2018-07-30T14:17:03.078Z,94317.73
2018-07-30T14:19:31.758Z,94317.91
2018-07-30T14:22:00.410Z,94311.77
2018-07-30T14:24:29.042Z,94310.25
2018-07-30T14:26:57.656Z,94308.43
2018-07-30T14:29:26.329Z,94306.89
2018-07-30T14:31:54.996Z,94308.57
2018-07-30T14:34:23.708Z,94313.55
2018-07-30T14:36:52.461Z,94304.54
2018-07-30T14:39:21.807Z,94307.87
2018-07-30T14:41:50.511Z,94308.22
2018-07-30T14:44:19.145Z,94312.20
2018-07-30T14:46:47.754Z,94310.38
2018-07-30T14:49:16.362Z,94315.71
2018-07-30T14:51:45.086Z,94314.70
2018-07-30T14:54:13.713Z,94319.86
2018-07-30T14:56:42.437Z,94324.98
2018-07-30T14:59:11.177Z,94326.14
2018-07-30T15:01:39.742Z,94335.22
2018-07-30T15:04:08.455Z,94330.16
2018-07-30T15:06:37.231Z,94335.56
2018-07-30T15:09:09.671Z,94329.98
2018-07-30T15:11:38.752Z,94328.67
2018-07-30T15:14:07.637Z,94331.30
2018-07-30T15:16:36.743Z,94330.37
2018-07-30T15:19:05.999Z,94335.63
2018-07-30T15:21:34.595Z,94335.33
2018-07-30T15:24:03.280Z,94338.64
2018-07-30T15:26:31.902Z,94327.91
2018-07-30T15:29:00.514Z,94328.34
2018-07-30T15:31:29.126Z,94329.85
2018-07-30T15:33:58.178Z,94332.75
2018-07-30T15:36:26.883Z,94340.13
2018-07-30T15:38:55.516Z,94335.69
2018-07-30T15:41:24.138Z,94337.97
2018-07-30T15:43:52.739Z,94342.41
2018-07-30T15:46:21.362Z,94349.72
2018-07-30T15:48:49.997Z,94352.25
2018-07-30T15:51:18.638Z,94351.27
2018-07-30T15:53:47.308Z,94349.21
2018-07-30T15:56:16.480Z,94355.38
2018-07-30T15:58:45.114Z,94356.20
2018-07-30T16:01:13.782Z,94361.81
2018-07-30T16:03:42.420Z,94355.48
2018-07-30T16:06:11.044Z,94353.08
2018-07-30T16:08:40.140Z,94352.29
2018-07-30T16:11:08.899Z,94358.91
2018-07-30T16:13:37.573Z,94364.80
2018-07-30T16:16:06.374Z,94371.44
2018-07-30T16:18:35.088Z,94367.72
2018-07-30T16:21:03.822Z,94375.22
2018-07-30T16:23:32.553Z,94368.33
2018-07-30T16:26:01.203Z,94370.45
2018-07-30T16:28:29.903Z,94373.66
2018-07-30T16:30:58.576Z,94375.99
2018-07-30T16:33:27.227Z,94365.08
2018-07-30T16:35:55.884Z,94365.64
2018-07-30T16:38:24.538Z,94368.02
2018-07-30T16:40:53.231Z,94370.95
2018-07-30T16:43:21.912Z,94369.53
2018-07-30T16:45:50.631Z,94372.84
2018-07-30T16:48:19.466Z,94378.70
2018-07-30T16:50:48.101Z,94380.89
2018-07-30T16:53:17.482Z,94375.06
2018-07-30T16:55:46.171Z,94376.80
2018-07-30T16:58:15.130Z,94381.63
2018-07-30T17:00:43.840Z,94382.40
2018-07-30T17:03:12.613Z,94377.05
2018-07-30T17:05:41.299Z,94380.11
2018-07-30T17:08:10.032Z,94379.82
2018-07-30T17:10:38.632Z,94373.62
2018-07-30T17:13:07.308Z,94374.64
2018-07-30T17:15:36.113Z,94379.19
2018-07-30T17:18:04.986Z,94387.48
2018-07-30T17:20:34.222Z,94391.33
2018-07-30T17:23:02.971Z,94397.80
2018-07-30T17:25:31.595Z,94397.17
2018-07-30T17:28:00.278Z,94396.63
2018-07-30T17:30:28.967Z,94405.14
2018-07-30T17:32:57.616Z,94407.53
2018-07-30T17:35:26.320Z,94406.46
2018-07-30T17:37:55.032Z,94414.95
2018-07-30T17:40:23.754Z,94412.81
2018-07-30T17:42:52.486Z,94419.61
2018-07-30T17:45:21.210Z,94414.81
2018-07-30T17:47:50.493Z,94411.16
2018-07-30T17:50:21.746Z,94415.41
2018-07-30T17:52:51.888Z,94420.73
2018-07-30T17:55:20.653Z,94426.81
2018-07-30T17:57:49.341Z,94425.75
2018-07-30T18:00:18.035Z,94425.17
2018-07-30T18:02:46.742Z,94421.16
2018-07-30T18:05:18.382Z,94417.19
2018-07-30T18:07:48.552Z,94418.00
2018-07-30T18:10:17.269Z,94418.20
2018-07-30T18:12:46.184Z,94421.38
2018-07-30T18:15:15.039Z,94414.90
2018-07-30T18:17:43.750Z,94423.59
2018-07-30T18:20:12.530Z,94419.14
2018-07-30T18:22:41.362Z,94417.27
2018-07-30T18:25:10.127Z,94423.07
2018-07-30T18:27:38.810Z,94423.33
2018-07-30T18:30:07.775Z,94428.14
2018-07-30T18:32:36.494Z,94432.62
2018-07-30T18:35:05.398Z,94440.56
2018-07-30T18:37:34.016Z,94440.50
2018-07-30T18:40:02.907Z,94437.56
2018-07-30T18:42:31.579Z,94440.50
2018-07-30T18:45:00.369Z,94437.08
2018-07-30T18:47:29.038Z,94434.70
2018-07-30T18:49:58.015Z,94441.42
2018-07-30T18:52:26.764Z,94442.38
2018-07-30T18:54:55.522Z,94448.47
2018-07-30T18:57:24.203Z,94455.09
2018-07-30T18:59:52.978Z,94459.08
2018-07-30T19:02:21.663Z,94462.82
2018-07-30T19:04:50.385Z,94462.08
2018-07-30T19:07:19.092Z,94466.55
2018-07-30T19:09:47.794Z,94470.19
2018-07-30T19:12:16.980Z,94472.02
2018-07-30T19:14:45.601Z,94464.61
2018-07-30T19:17:14.294Z,94464.61
2018-07-30T19:19:43.162Z,94463.67
2018-07-30T19:22:11.868Z,94466.85
2018-07-30T19:24:40.719Z,94463.62
2018-07-30T19:27:09.440Z,94462.91
2018-07-30T19:29:38.364Z,94463.27
2018-07-30T19:32:07.050Z,94462.20
2018-07-30T19:34:35.690Z,94470.65
2018-07-30T19:37:04.394Z,94475.92
2018-07-30T19:39:33.068Z,94476.41
2018-07-30T19:42:01.815Z,94481.08
2018-07-30T19:44:30.542Z,94482.33
2018-07-30T19:46:59.341Z,94489.93
2018-07-30T19:49:28.005Z,94491.95
2018-07-30T19:51:56.658Z,94498.80
2018-07-30T19:54:25.332Z,94498.73
2018-07-30T19:56:54.059Z,94496.25
2018-07-30T19:59:23.095Z,94495.27
2018-07-30T20:01:52.280Z,94502.48
2018-07-30T20:04:20.941Z,94504.12
2018-07-30T20:06:49.823Z,94502.83
2018-07-30T20:09:19.115Z,94503.11
2018-07-30T20:11:48.237Z,94507.55
2018-07-30T20:14:17.293Z,94500.70
2018-07-30T20:16:46.070Z,94503.47
2018-07-30T20:19:14.751Z,94510.11
2018-07-30T20:21:44.330Z,94507.27
2018-07-30T20:24:12.968Z,94514.96
2018-07-30T20:26:41.616Z,94508.84
2018-07-30T20:29:10.337Z,94513.64
2018-07-30T20:31:39.084Z,94510.73
2018-07-30T20:34:08.009Z,94512.78
2018-07-30T20:36:37.119Z,94510.55
2018-07-30T20:39:08.135Z,94512.03
2018-07-30T20:41:37.017Z,94509.95
2018-07-30T20:44:05.732Z,94509.52
2018-07-30T20:46:34.534Z,94510.06
2018-07-30T20:49:03.226Z,94511.31
2018-07-30T20:51:32.467Z,94509.70
2018-07-30T20:54:01.122Z,94502.17
2018-07-30T20:56:29.858Z,94498.87
2018-07-30T20:58:58.558Z,94498.52
2018-07-30T21:01:27.261Z,94500.06
2018-07-30T21:03:55.898Z,94495.77
2018-07-30T21:06:24.653Z,94493.70
2018-07-30T21:08:53.295Z,94499.27
2018-07-30T21:11:22.310Z,94508.70
2018-07-30T21:13:50.952Z,94515.81
2018-07-30T21:16:19.630Z,94509.95
2018-07-30T21:18:48.295Z,94500.52
2018-07-30T21:21:17.094Z,94502.16
2018-07-30T21:23:45.741Z,94499.88
2018-07-30T21:26:14.416Z,94510.20
2018-07-30T21:28:43.077Z,94512.16
2018-07-30T21:31:11.723Z,94516.31
2018-07-30T21:33:40.374Z,94511.17
2018-07-30T21:36:08.991Z,94515.20
2018-07-30T21:38:37.656Z,94514.46
2018-07-30T21:41:06.588Z,94515.06
2018-07-30T21:43:35.478Z,94511.34
2018-07-30T21:46:04.345Z,94507.88
2018-07-30T21:48:33.098Z,94500.70
2018-07-30T21:51:01.751Z,94495.91
2018-07-30T21:53:30.359Z,94502.20
2018-07-30T21:55:58.986Z,94504.06
2018-07-30T21:58:27.640Z,94506.73
2018-07-30T22:00:57.383Z,94509.48
2018-07-30T22:03:27.286Z,94504.31
2018-07-30T22:05:56.259Z,94509.12
2018-07-30T22:08:25.138Z,94504.52
2018-07-30T22:10:53.843Z,94508.90
2018-07-30T22:13:23.452Z,94509.16
2018-07-30T22:15:52.228Z,94502.47
2018-07-30T22:18:20.974Z,94502.01
2018-07-30T22:20:49.783Z,94494.77
2018-07-30T22:23:18.421Z,94499.91
2018-07-30T22:25:47.120Z,94501.34
2018-07-30T22:28:16.362Z,94505.23
2018-07-30T22:30:45.011Z,94503.06
2018-07-30T22:33:13.853Z,94499.09
2018-07-30T22:35:42.478Z,94496.27
2018-07-30T22:38:11.194Z,94496.06
2018-07-30T22:40:39.810Z,94509.63
2018-07-30T22:45:36.454Z,94502.45
2018-07-30T22:48:05.226Z,94504.81
2018-07-30T22:50:34.111Z,94494.27
2018-07-30T22:53:02.806Z,94500.09
2018-07-30T22:55:31.498Z,94491.37
2018-07-30T22:58:00.143Z,94491.45
2018-07-30T23:00:28.782Z,94487.02
2018-07-30T23:02:57.459Z,94488.91
2018-07-30T23:05:26.243Z,94485.46
2018-07-30T23:07:54.977Z,94480.30
2018-07-30T23:10:23.613Z,94482.06
2018-07-30T23:12:52.395Z,94480.45
2018-07-30T23:15:21.070Z,94480.41
2018-07-30T23:17:49.750Z,94478.75
2018-07-30T23:20:18.350Z,94476.72
2018-07-30T23:22:47.056Z,94479.58
2018-07-30T23:25:15.692Z,94483.45
2018-07-30T23:27:44.358Z,94475.41
2018-07-30T23:30:13.049Z,94471.02
2018-07-30T23:32:41.757Z,94467.44
2018-07-30T23:36:39.552Z,94464.38
2018-07-30T23:39:10.373Z,94470.36
2018-07-30T23:41:39.406Z,94468.76
2018-07-30T23:44:08.321Z,94471.48
2018-07-30T23:46:37.106Z,94475.45
2018-07-30T23:49:06.015Z,94476.03
2018-07-30T23:51:34.659Z,94473.64
2018-07-30T23:54:03.398Z,94472.80
2018-07-30T23:56:32.024Z,94477.84
2018-07-30T23:59:00.755Z,94481.52
